Time;durP1;ratioP1;P1;durP2;ratioP2;P2;SDS_P1;SDS_P2;PMS_P1;PMS_P2;Temp;Humidity;BMP_temperature;BMP_pressure;BME280_temperature;BME280_humidity;BME280_pressure;Samples;Min_cycle;Max_cycle;Signal;HPM_P1;HPM_P2
2022/12/06 00:01:53;;;;;;;8.13;2.10;;;;;;;;;;6295147;22;20019;-91
2022/12/06 00:04:18;;;;;;;8.52;1.73;;;;;;;;;;6295796;22;20011;-91
2022/12/06 00:06:46;;;;;;;10.63;2.13;;;;;;;;;;6295510;22;20405;-91
2022/12/06 00:09:20;;;;;;;12.88;2.38;;;;;;;;;;6294409;22;20007;-90
2022/12/06 00:11:45;;;;;;;;;;;;;;;;;;6297652;22;20044;-88
2022/12/06 00:14:10;;;;;;;6.57;1.70;;;;;;;;;;6324269;22;20656;-91
2022/12/06 00:16:36;;;;;;;7.70;1.50;;;;;;;;;;6327626;22;20084;-91
2022/12/06 00:19:01;;;;;;;8.05;1.88;;;;;;;;;;6300227;22;20119;-90
2022/12/06 00:21:28;;;;;;;7.05;2.00;;;;;;;;;;6326065;22;20074;-91
2022/12/06 00:23:54;;;;;;;6.72;1.63;;;;;;;;;;6298309;22;20432;-90
2022/12/06 00:26:20;;;;;;;7.18;1.50;;;;;;;;;;6298723;22;20018;-91
2022/12/06 00:28:46;;;;;;;8.63;1.67;;;;;;;;;;6297571;22;20015;-90
2022/12/06 00:31:14;;;;;;;6.57;1.40;;;;;;;;;;6297538;22;20003;-90
2022/12/06 00:33:39;;;;;;;9.90;1.85;;;;;;;;;;6298112;22;20018;-90
2022/12/06 00:36:06;;;;;;;12.85;1.65;;;;;;;;;;6298159;22;20014;-91
2022/12/06 00:38:31;;;;;;;11.00;1.60;;;;;;;;;;6325372;22;20450;-90
2022/12/06 00:40:58;;;;;;;7.50;1.60;;;;;;;;;;6326026;22;20069;-90
2022/12/06 00:43:23;;;;;;;8.15;1.70;;;;;;;;;;6326914;22;20081;-90
2022/12/06 00:45:48;;;;;;;8.40;1.40;;;;;;;;;;6326733;22;20063;-91
2022/12/06 00:48:13;;;;;;;10.05;1.50;;;;;;;;;;6324963;22;20409;-90
2022/12/06 00:50:39;;;;;;;6.15;1.35;;;;;;;;;;6322408;22;20019;-91
2022/12/06 00:53:04;;;;;;;8.95;1.70;;;;;;;;;;6300385;22;20002;-91
2022/12/06 00:55:29;;;;;;;5.40;1.60;;;;;;;;;;6327102;22;20026;-90
2022/12/06 00:57:54;;;;;;;7.00;1.42;;;;;;;;;;6326850;22;20357;-91
2022/12/06 01:00:20;;;;;;;7.75;1.75;;;;;;;;;;6327497;22;20033;-91
2022/12/06 01:02:45;;;;;;;7.68;1.45;;;;;;;;;;6327673;22;20010;-90
2022/12/06 01:05:10;;;;;;;9.65;1.90;;;;;;;;;;6329157;22;20014;-91
2022/12/06 01:07:36;;;;;;;6.47;1.35;;;;;;;;;;6329363;22;20007;-91
2022/12/06 01:10:01;;;;;;;8.73;1.50;;;;;;;;;;6329290;22;20007;-90
2022/12/06 01:12:26;;;;;;;6.88;1.70;;;;;;;;;;6329321;22;20019;-91
2022/12/06 01:14:55;;;;;;;7.97;1.42;;;;;;;;;;6330845;22;19999;-90
2022/12/06 01:17:20;;;;;;;6.60;1.38;;;;;;;;;;6329607;22;20026;-91
2022/12/06 01:19:45;;;;;;;5.90;1.40;;;;;;;;;;6328452;22;20015;-91
2022/12/06 01:22:11;;;;;;;6.50;1.08;;;;;;;;;;6326497;22;20098;-91
2022/12/06 01:24:36;;;;;;;5.65;1.30;;;;;;;;;;6326882;22;20549;-91
2022/12/06 01:27:01;;;;;;;5.60;1.35;;;;;;;;;;6328365;22;20432;-91
2022/12/06 01:29:27;;;;;;;6.90;1.30;;;;;;;;;;6326777;22;20452;-91
2022/12/06 01:31:53;;;;;;;6.85;1.40;;;;;;;;;;6301376;22;20464;-90
2022/12/06 01:34:19;;;;;;;5.53;1.13;;;;;;;;;;6328676;22;20006;-90
2022/12/06 01:36:44;;;;;;;6.90;1.33;;;;;;;;;;6326846;22;20017;-90
2022/12/06 01:39:09;;;;;;;9.85;1.70;;;;;;;;;;6326441;22;20547;-91
2022/12/06 01:41:35;;;;;;;6.00;1.38;;;;;;;;;;6328646;22;20084;-91
2022/12/06 01:44:01;;;;;;;6.13;1.50;;;;;;;;;;6328525;22;20011;-91
2022/12/06 01:46:26;;;;;;;6.97;1.70;;;;;;;;;;6326386;22;20007;-91
2022/12/06 01:49:02;;;;;;;9.20;1.65;;;;;;;;;;6328311;22;20124;-91
2022/12/06 01:51:27;;;;;;;8.32;2.05;;;;;;;;;;6329534;22;20002;-91
2022/12/06 01:53:53;;;;;;;8.55;1.63;;;;;;;;;;6300080;22;20013;-90
2022/12/06 01:56:19;;;;;;;6.50;1.67;;;;;;;;;;6302877;22;20045;-91
2022/12/06 01:58:45;;;;;;;9.38;1.48;;;;;;;;;;6301563;22;20698;-91
2022/12/06 02:01:11;;;;;;;7.28;1.35;;;;;;;;;;6329826;22;20497;-91
2022/12/06 02:03:37;;;;;;;8.02;1.77;;;;;;;;;;6300664;22;20010;-91
2022/12/06 02:06:03;;;;;;;6.88;1.50;;;;;;;;;;6330751;22;20037;-90
2022/12/06 02:08:29;;;;;;;8.55;1.30;;;;;;;;;;6329094;22;20014;-91
2022/12/06 02:10:54;;;;;;;4.90;1.30;;;;;;;;;;6301180;22;20007;-92
2022/12/06 02:13:20;;;;;;;7.50;1.50;;;;;;;;;;6302069;22;20025;-91
2022/12/06 02:16:04;;;;;;;5.80;1.35;;;;;;;;;;6302027;22;20003;-91
2022/12/06 02:18:38;;;;;;;7.57;1.67;;;;;;;;;;6327977;22;19999;-90
2022/12/06 02:21:12;;;;;;;7.65;1.70;;;;;;;;;;6300539;22;20089;-91
2022/12/06 02:23:37;;;;;;;;;;;;;;;;;;6300927;22;20056;-89
2022/12/06 02:26:23;;;;;;;8.50;1.40;;;;;;;;;;6302557;22;19973;-91
2022/12/06 02:29:01;;;;;;;7.53;1.20;;;;;;;;;;6301695;22;20093;-91
2022/12/06 02:31:32;;;;;;;6.47;1.30;;;;;;;;;;6300528;22;20007;-92
2022/12/06 02:34:16;;;;;;;9.80;1.50;;;;;;;;;;6329750;22;20131;-91
2022/12/06 02:36:41;;;;;;;;;;;;;;;;;;6329768;22;20010;-89
2022/12/06 02:39:06;;;;;;;9.20;1.60;;;;;;;;;;6327788;22;19906;-91
2022/12/06 02:41:39;;;;;;;9.63;1.50;;;;;;;;;;6302057;22;20021;-91
2022/12/06 02:44:06;;;;;;;8.25;1.52;;;;;;;;;;6328804;22;20024;-91
2022/12/06 02:46:34;;;;;;;5.90;1.13;;;;;;;;;;6301886;22;20094;-91
2022/12/06 02:49:01;;;;;;;6.10;1.63;;;;;;;;;;6328707;22;20438;-91
2022/12/06 02:51:28;;;;;;;6.63;1.48;;;;;;;;;;6329018;22;19999;-91
2022/12/06 02:53:55;;;;;;;9.02;1.50;;;;;;;;;;6325988;22;20067;-91
2022/12/06 02:56:21;;;;;;;9.32;1.60;;;;;;;;;;6300182;22;20003;-91
2022/12/06 02:58:47;;;;;;;6.50;1.35;;;;;;;;;;6295703;22;20056;-91
2022/12/06 03:04:30;;;;;;;5.75;1.30;;;;;;;;;;6287336;22;20129;-92
2022/12/06 03:07:14;;;;;;;7.45;1.63;;;;;;;;;;6268764;22;20395;-93
2022/12/06 03:09:39;;;;;;;7.05;1.50;;;;;;;;;;6270334;22;20038;-93
2022/12/06 03:12:21;;;;;;;7.10;1.70;;;;;;;;;;6272210;22;20003;-93
2022/12/06 03:14:47;;;;;;;10.45;1.70;;;;;;;;;;6299148;22;20006;-92
2022/12/06 03:17:12;;;;;;;8.50;2.35;;;;;;;;;;6271307;22;20457;-92
2022/12/06 03:19:39;;;;;;;9.27;1.77;;;;;;;;;;6270775;22;20003;-92
2022/12/06 03:22:13;;;;;;;5.85;1.33;;;;;;;;;;6272489;22;20732;-93
2022/12/06 03:24:39;;;;;;;7.75;1.60;;;;;;;;;;6298774;22;20002;-93
2022/12/06 03:27:16;;;;;;;6.75;1.40;;;;;;;;;;6299238;22;20440;-93
2022/12/06 03:29:48;;;;;;;10.65;1.75;;;;;;;;;;6297932;22;20122;-92
2022/12/06 03:32:14;;;;;;;6.70;1.50;;;;;;;;;;6270029;22;20027;-93
2022/12/06 03:34:42;;;;;;;6.45;1.33;;;;;;;;;;6271000;22;20290;-93
2022/12/06 03:37:09;;;;;;;6.63;1.20;;;;;;;;;;6295989;22;20007;-93
2022/12/06 03:39:42;;;;;;;6.10;1.25;;;;;;;;;;6270534;22;20007;-93
2022/12/06 03:42:08;;;;;;;5.45;1.40;;;;;;;;;;6269124;22;20056;-92
2022/12/06 03:44:34;;;;;;;7.07;1.38;;;;;;;;;;6295587;22;20025;-92
2022/12/06 03:47:18;;;;;;;8.30;1.48;;;;;;;;;;6298259;22;20031;-93
2022/12/06 03:49:45;;;;;;;7.20;1.60;;;;;;;;;;6295143;22;20014;-93
2022/12/06 03:52:10;;;;;;;7.28;1.48;;;;;;;;;;6296001;22;20237;-93
2022/12/06 03:54:39;;;;;;;6.60;1.55;;;;;;;;;;6296021;22;20384;-93
2022/12/06 03:57:04;;;;;;;6.10;1.42;;;;;;;;;;6298676;22;20029;-92
2022/12/06 03:59:29;;;;;;;6.07;1.42;;;;;;;;;;6297753;22;20527;-93
2022/12/06 04:01:55;;;;;;;6.55;1.38;;;;;;;;;;6296379;22;20014;-92
2022/12/06 04:04:20;;;;;;;6.70;1.48;;;;;;;;;;6295935;22;20023;-92
2022/12/06 04:06:45;;;;;;;6.00;1.30;;;;;;;;;;6295319;22;20452;-93
2022/12/06 04:11:55;;;;;;;5.82;1.40;;;;;;;;;;6298205;22;20014;-92
2022/12/06 04:14:20;;;;;;;5.28;1.30;;;;;;;;;;6297194;22;20003;-93
2022/12/06 04:19:29;;;;;;;;;;;;;;;;;;6299137;22;20608;-92
2022/12/06 04:24:38;;;;;;;7.38;1.30;;;;;;;;;;6296234;22;20022;-92
2022/12/06 04:40:45;;;;;;;8.40;2.03;;;;;;;;;;6300007;22;20084;-92
2022/12/06 04:45:54;;;;;;;6.13;1.30;;;;;;;;;;6299417;22;20022;-93
2022/12/06 04:48:19;;;;;;;8.02;1.55;;;;;;;;;;6299016;22;20464;-92
2022/12/06 04:50:48;;;;;;;6.78;1.55;;;;;;;;;;6296025;22;20302;-92
2022/12/06 04:53:14;;;;;;;7.53;1.65;;;;;;;;;;6299134;22;20003;-92
2022/12/06 04:55:39;;;;;;;5.70;1.65;;;;;;;;;;6298453;22;19996;-93
2022/12/06 04:58:04;;;;;;;6.07;1.40;;;;;;;;;;6300749;22;20015;-93
2022/12/06 05:00:30;;;;;;;4.97;1.27;;;;;;;;;;6298134;22;20208;-93
2022/12/06 05:02:55;;;;;;;6.30;1.35;;;;;;;;;;6296374;22;20047;-93
2022/12/06 05:05:20;;;;;;;5.85;1.10;;;;;;;;;;6297219;22;20493;-93
2022/12/06 05:07:45;;;;;;;5.80;1.20;;;;;;;;;;6298155;22;20715;-93
2022/12/06 05:10:12;;;;;;;4.47;1.05;;;;;;;;;;6297774;22;19995;-93
2022/12/06 05:12:37;;;;;;;4.05;0.85;;;;;;;;;;6299719;22;20498;-93
2022/12/06 05:15:02;;;;;;;4.95;1.08;;;;;;;;;;6297110;22;19999;-93
2022/12/06 05:17:28;;;;;;;5.28;1.20;;;;;;;;;;6296029;22;20003;-92
2022/12/06 05:19:53;;;;;;;6.13;1.15;;;;;;;;;;6298593;22;20411;-93
2022/12/06 05:22:18;;;;;;;6.78;1.20;;;;;;;;;;6299489;22;20007;-92
2022/12/06 05:24:44;;;;;;;5.47;1.25;;;;;;;;;;6299143;22;20344;-93
2022/12/06 05:27:09;;;;;;;5.13;0.98;;;;;;;;;;6300983;22;20056;-91
2022/12/06 05:29:34;;;;;;;7.72;1.10;;;;;;;;;;6301508;22;20038;-93
2022/12/06 05:31:59;;;;;;;5.07;0.97;;;;;;;;;;6301858;22;20818;-92
2022/12/06 05:34:25;;;;;;;7.83;1.20;;;;;;;;;;6298036;22;20288;-92
2022/12/06 05:36:50;;;;;;;5.72;1.00;;;;;;;;;;6301498;22;20681;-92
2022/12/06 05:39:15;;;;;;;6.15;1.27;;;;;;;;;;6297968;22;20038;-92
2022/12/06 05:41:41;;;;;;;5.22;1.00;;;;;;;;;;6298524;22;20665;-91
2022/12/06 05:44:06;;;;;;;6.60;1.02;;;;;;;;;;6301392;22;20002;-92
2022/12/06 05:46:31;;;;;;;3.75;0.80;;;;;;;;;;6300263;22;20018;-91
2022/12/06 05:48:56;;;;;;;6.00;1.02;;;;;;;;;;6299260;22;20018;-93
2022/12/06 05:51:22;;;;;;;4.53;1.00;;;;;;;;;;6298363;22;20345;-92
2022/12/06 05:53:47;;;;;;;3.95;1.10;;;;;;;;;;6300149;22;20003;-92
2022/12/06 05:56:12;;;;;;;4.87;1.10;;;;;;;;;;6300705;22;20417;-92
2022/12/06 05:58:37;;;;;;;5.38;1.00;;;;;;;;;;6299224;22;21101;-92
2022/12/06 06:04:13;;;;;;;6.03;1.20;;;;;;;;;;6323518;22;20026;-92
2022/12/06 06:06:38;;;;;;;6.03;1.00;;;;;;;;;;6332496;22;19999;-92
2022/12/06 06:09:03;;;;;;;4.75;1.15;;;;;;;;;;6331353;22;19998;-92
2022/12/06 06:11:29;;;;;;;5.10;0.98;;;;;;;;;;6331952;22;20078;-92
2022/12/06 06:13:54;;;;;;;17.20;2.17;;;;;;;;;;6305177;22;20495;-92
2022/12/06 06:16:20;;;;;;;88.57;6.57;;;;;;;;;;6304128;22;20007;-92
2022/12/06 06:18:45;;;;;;;7.15;1.10;;;;;;;;;;6303815;22;20003;-93
2022/12/06 06:21:12;;;;;;;6.43;1.67;;;;;;;;;;6303452;22;20076;-92
2022/12/06 06:23:37;;;;;;;5.80;1.45;;;;;;;;;;6332153;22;20003;-92
2022/12/06 06:26:06;;;;;;;5.32;1.38;;;;;;;;;;6304652;22;20014;-91
2022/12/06 06:28:32;;;;;;;10.13;1.92;;;;;;;;;;6305164;22;20081;-93
2022/12/06 06:31:01;;;;;;;10.27;1.67;;;;;;;;;;6305816;22;20034;-94
2022/12/06 06:33:26;;;;;;;14.75;2.15;;;;;;;;;;6303650;22;20030;-94
2022/12/06 06:35:51;;;;;;;15.32;2.30;;;;;;;;;;6330330;22;20006;-93
2022/12/06 06:38:17;;;;;;;89.63;8.35;;;;;;;;;;6305245;22;20030;-94
2022/12/06 06:40:43;;;;;;;5.43;1.50;;;;;;;;;;6331718;22;20003;-95
2022/12/06 06:43:18;;;;;;;140.65;12.20;;;;;;;;;;6305041;22;20002;-92
2022/12/06 06:45:57;;;;;;;10.20;1.77;;;;;;;;;;6299812;22;20011;-91
2022/12/06 06:48:23;;;;;;;6.80;1.80;;;;;;;;;;6298567;22;19999;-94
2022/12/06 06:50:49;;;;;;;54.30;4.50;;;;;;;;;;6331488;22;20003;-92
2022/12/06 06:53:14;;;;;;;13.98;2.20;;;;;;;;;;6301538;22;20076;-94
2022/12/06 06:55:39;;;;;;;19.60;2.10;;;;;;;;;;6299086;22;20332;-93
2022/12/06 06:58:05;;;;;;;6.05;1.80;;;;;;;;;;6329013;22;20030;-92
2022/12/06 07:00:30;;;;;;;293.50;27.05;;;;;;;;;;6328583;22;20007;-93
2022/12/06 07:02:56;;;;;;;5.85;1.60;;;;;;;;;;6327838;22;20344;-93
2022/12/06 07:05:21;;;;;;;33.78;3.95;;;;;;;;;;6299265;22;20328;-93
2022/12/06 07:07:47;;;;;;;36.92;3.17;;;;;;;;;;6301346;22;20018;-94
2022/12/06 07:10:13;;;;;;;318.58;31.63;;;;;;;;;;6300941;22;20006;-93
2022/12/06 07:12:38;;;;;;;6.13;1.60;;;;;;;;;;6300263;22;20003;-93
2022/12/06 07:15:04;;;;;;;7.63;1.75;;;;;;;;;;6301368;22;20860;-93
2022/12/06 07:17:29;;;;;;;125.13;9.32;;;;;;;;;;6301365;22;20155;-93
2022/12/06 07:19:55;;;;;;;6.68;1.65;;;;;;;;;;6302011;22;20017;-93
2022/12/06 07:22:20;;;;;;;6.53;1.65;;;;;;;;;;6331569;22;20019;-94
2022/12/06 07:24:50;;;;;;;189.80;15.35;;;;;;;;;;6304906;22;20019;-93
2022/12/06 07:27:16;;;;;;;295.40;19.67;;;;;;;;;;6303726;22;20013;-93
2022/12/06 07:29:41;;;;;;;60.17;5.37;;;;;;;;;;6332036;22;20006;-93
2022/12/06 07:32:07;;;;;;;12.52;2.22;;;;;;;;;;6304325;22;20273;-93
2022/12/06 07:34:32;;;;;;;6.03;1.65;;;;;;;;;;6304736;22;20015;-93
2022/12/06 07:36:57;;;;;;;7.15;1.70;;;;;;;;;;6333636;22;19999;-93
2022/12/06 07:39:23;;;;;;;27.27;2.53;;;;;;;;;;6331970;22;20006;-93
2022/12/06 07:47:16;;;;;;;58.28;4.53;;;;;;;;;;6326108;22;20013;-93
2022/12/06 07:49:42;;;;;;;26.92;2.65;;;;;;;;;;6299783;22;20107;-96
2022/12/06 07:52:07;;;;;;;5.55;1.45;;;;;;;;;;6300418;22;20018;-93
2022/12/06 07:54:32;;;;;;;18.60;2.35;;;;;;;;;;6326359;22;20056;-93
2022/12/06 07:56:57;;;;;;;6.32;1.60;;;;;;;;;;6299396;22;20003;-92
2022/12/06 07:59:23;;;;;;;14.13;2.05;;;;;;;;;;6327708;22;20011;-92
2022/12/06 08:01:49;;;;;;;8.57;1.60;;;;;;;;;;6302031;22;20844;-93
2022/12/06 08:04:14;;;;;;;7.22;1.70;;;;;;;;;;6299737;22;20023;-95
2022/12/06 08:06:40;;;;;;;8.60;1.48;;;;;;;;;;6303432;22;20501;-93
2022/12/06 08:09:08;;;;;;;8.05;1.50;;;;;;;;;;6330169;22;20011;-94
2022/12/06 08:11:33;;;;;;;7.85;1.60;;;;;;;;;;6301368;22;19999;-93
2022/12/06 08:13:59;;;;;;;10.57;1.45;;;;;;;;;;6302238;22;20010;-92
2022/12/06 08:16:24;;;;;;;5.70;1.23;;;;;;;;;;6331875;22;19999;-93
2022/12/06 08:18:49;;;;;;;5.67;1.17;;;;;;;;;;6302918;22;20220;-93
2022/12/06 08:21:15;;;;;;;6.05;1.10;;;;;;;;;;6303336;22;20236;-92
2022/12/06 08:23:40;;;;;;;6.45;1.25;;;;;;;;;;6331678;22;20068;-92
2022/12/06 08:26:07;;;;;;;6.07;1.20;;;;;;;;;;6331203;22;19999;-93
2022/12/06 08:28:34;;;;;;;6.07;1.20;;;;;;;;;;6303834;22;20348;-94
2022/12/06 08:31:03;;;;;;;7.13;1.33;;;;;;;;;;6331321;22;19994;-92
2022/12/06 08:33:31;;;;;;;4.35;0.80;;;;;;;;;;6330717;22;19995;-93
2022/12/06 08:35:56;;;;;;;7.18;1.20;;;;;;;;;;6303607;22;20062;-92
2022/12/06 08:38:21;;;;;;;3.72;0.80;;;;;;;;;;6302650;22;20030;-93
2022/12/06 08:40:47;;;;;;;4.72;1.10;;;;;;;;;;6303919;22;20495;-93
2022/12/06 08:43:12;;;;;;;2.33;0.90;;;;;;;;;;6330672;22;20003;-93
2022/12/06 08:45:37;;;;;;;5.18;0.90;;;;;;;;;;6303177;22;20396;-92
2022/12/06 08:48:02;;;;;;;5.47;1.07;;;;;;;;;;6303357;22;20123;-92
2022/12/06 08:50:28;;;;;;;4.78;0.93;;;;;;;;;;6302567;22;20247;-93
2022/12/06 08:52:53;;;;;;;5.60;0.90;;;;;;;;;;6304018;22;20010;-92
2022/12/06 08:55:18;;;;;;;3.78;1.05;;;;;;;;;;6303575;22;20030;-92
2022/12/06 08:57:43;;;;;;;8.73;1.45;;;;;;;;;;6332767;22;20071;-92
2022/12/06 09:00:09;;;;;;;5.03;0.85;;;;;;;;;;6331256;22;20090;-91
2022/12/06 09:02:37;;;;;;;2.80;0.75;;;;;;;;;;6304248;22;20014;-92
2022/12/06 09:05:02;;;;;;;4.20;0.82;;;;;;;;;;6303512;22;20020;-91
2022/12/06 09:07:27;;;;;;;3.38;0.70;;;;;;;;;;6331938;22;20168;-92
2022/12/06 09:09:53;;;;;;;4.70;0.77;;;;;;;;;;6303339;22;20011;-92
2022/12/06 09:12:18;;;;;;;3.53;0.70;;;;;;;;;;6304139;22;20232;-92
2022/12/06 09:14:44;;;;;;;5.57;0.98;;;;;;;;;;6304103;22;20013;-92
2022/12/06 09:17:09;;;;;;;5.13;1.13;;;;;;;;;;6331798;22;19999;-92
2022/12/06 09:19:34;;;;;;;3.72;0.88;;;;;;;;;;6303583;22;20034;-92
2022/12/06 09:21:59;;;;;;;6.50;1.10;;;;;;;;;;6332635;22;20014;-92
2022/12/06 09:24:25;;;;;;;3.45;0.73;;;;;;;;;;6332938;22;20078;-93
2022/12/06 09:26:50;;;;;;;3.83;0.80;;;;;;;;;;6303474;22;20116;-93
2022/12/06 09:29:16;;;;;;;3.10;0.68;;;;;;;;;;6303244;22;20431;-93
2022/12/06 09:31:43;;;;;;;3.72;0.85;;;;;;;;;;6302645;22;20014;-92
2022/12/06 09:34:08;;;;;;;2.78;0.57;;;;;;;;;;6302528;22;20006;-92
2022/12/06 09:36:35;;;;;;;4.38;0.75;;;;;;;;;;6300739;22;20006;-92
2022/12/06 09:39:23;;;;;;;5.07;0.90;;;;;;;;;;6301347;22;20011;-92
2022/12/06 09:42:08;;;;;;;4.72;0.82;;;;;;;;;;6308701;22;20015;-92
2022/12/06 09:44:52;;;;;;;3.72;0.70;;;;;;;;;;6299483;22;20013;-93
2022/12/06 09:47:17;;;;;;;5.75;1.00;;;;;;;;;;6301519;22;20014;-93
2022/12/06 09:49:56;;;;;;;3.57;0.93;;;;;;;;;;6327667;22;20001;-93
2022/12/06 09:52:22;;;;;;;9.90;1.17;;;;;;;;;;6330138;22;21109;-92
2022/12/06 09:54:54;;;;;;;6.70;1.08;;;;;;;;;;6301970;22;20003;-92
2022/12/06 09:57:19;;;;;;;4.18;0.75;;;;;;;;;;6328714;22;20082;-93
2022/12/06 10:00:03;;;;;;;5.23;1.10;;;;;;;;;;6328549;22;20039;-92
2022/12/06 10:02:28;;;;;;;5.32;1.10;;;;;;;;;;6300009;22;20228;-92
2022/12/06 10:05:29;;;;;;;2.33;0.60;;;;;;;;;;6299782;22;20526;-92
2022/12/06 10:07:54;;;;;;;10.93;1.80;;;;;;;;;;6172448;23;20230;-92
2022/12/06 10:10:25;;;;;;;11.52;1.45;;;;;;;;;;6148554;23;20028;-92
2022/12/06 10:12:53;;;;;;;5.13;1.00;;;;;;;;;;6148053;23;20016;-92
2022/12/06 10:15:36;;;;;;;4.50;0.75;;;;;;;;;;6146402;23;20092;-92
2022/12/06 10:18:04;;;;;;;3.35;0.70;;;;;;;;;;6145133;23;20012;-92
2022/12/06 10:20:29;;;;;;;4.07;0.90;;;;;;;;;;6146220;23;20009;-92
2022/12/06 10:23:10;;;;;;;8.60;1.40;;;;;;;;;;6144919;23;20091;-92
2022/12/06 10:25:38;;;;;;;6.55;0.90;;;;;;;;;;6144593;23;20368;-91
2022/12/06 10:28:03;;;;;;;8.15;1.23;;;;;;;;;;6146323;23;20379;-92
2022/12/06 10:30:29;;;;;;;7.97;1.40;;;;;;;;;;6148678;23;20013;-91
2022/12/06 10:33:05;;;;;;;5.13;1.08;;;;;;;;;;6147616;23;20001;-91
2022/12/06 10:35:36;;;;;;;3.95;0.90;;;;;;;;;;6172380;23;20012;-91
2022/12/06 10:38:09;;;;;;;5.32;1.00;;;;;;;;;;6170558;23;20717;-92
2022/12/06 10:40:34;;;;;;;6.90;1.02;;;;;;;;;;6148332;23;20052;-92
2022/12/06 10:43:03;;;;;;;4.97;1.00;;;;;;;;;;6319884;22;20014;-92
2022/12/06 10:48:22;;;;;;;5.38;0.98;;;;;;;;;;6327974;22;20526;-92
2022/12/06 10:50:50;;;;;;;6.20;1.13;;;;;;;;;;6328670;22;20114;-90
2022/12/06 10:53:17;;;;;;;6.05;1.20;;;;;;;;;;6299711;22;20305;-92
2022/12/06 10:55:42;;;;;;;7.55;1.52;;;;;;;;;;6329533;22;20030;-91
2022/12/06 10:58:20;;;;;;;13.90;1.57;;;;;;;;;;6300057;22;20447;-91
2022/12/06 11:00:59;;;;;;;6.35;1.10;;;;;;;;;;6301023;22;20239;-91
2022/12/06 11:03:29;;;;;;;10.25;1.30;;;;;;;;;;6302011;22;20027;-92
2022/12/06 11:05:54;;;;;;;6.60;1.58;;;;;;;;;;6300854;22;20093;-92
2022/12/06 11:08:26;;;;;;;7.70;1.20;;;;;;;;;;6301883;22;20060;-92
2022/12/06 11:10:53;;;;;;;7.63;1.48;;;;;;;;;;6328938;22;20096;-92
2022/12/06 11:13:41;;;;;;;7.50;1.30;;;;;;;;;;6299310;22;20743;-92
2022/12/06 11:16:06;;;;;;;7.47;1.10;;;;;;;;;;6325642;22;20002;-91
2022/12/06 11:18:32;;;;;;;6.72;0.90;;;;;;;;;;6298087;22;20612;-92
2022/12/06 11:21:05;;;;;;;7.00;1.17;;;;;;;;;;6326779;22;20427;-92
2022/12/06 11:23:48;;;;;;;7.82;1.40;;;;;;;;;;6300732;22;20455;-91
2022/12/06 11:26:33;;;;;;;9.52;1.65;;;;;;;;;;6297469;22;20025;-92
2022/12/06 11:29:04;;;;;;;6.43;1.10;;;;;;;;;;6300832;22;20007;-92
2022/12/06 11:31:33;;;;;;;6.20;1.25;;;;;;;;;;6300732;22;20491;-92
2022/12/06 11:33:59;;;;;;;7.35;2.10;;;;;;;;;;6303431;22;20018;-93
2022/12/06 11:36:24;;;;;;;6.60;1.23;;;;;;;;;;6305282;22;20007;-93
2022/12/06 11:38:50;;;;;;;8.23;1.55;;;;;;;;;;6305439;22;20076;-92
2022/12/06 11:41:26;;;;;;;10.63;1.23;;;;;;;;;;6305543;22;20037;-92
2022/12/06 11:43:53;;;;;;;8.25;1.40;;;;;;;;;;6333885;22;20042;-92
2022/12/06 11:46:18;;;;;;;8.25;1.38;;;;;;;;;;6305314;22;20037;-93
2022/12/06 11:48:44;;;;;;;8.68;1.50;;;;;;;;;;6304987;22;20711;-92
2022/12/06 11:51:17;;;;;;;9.70;1.40;;;;;;;;;;6304687;22;20022;-95
2022/12/06 11:54:01;;;;;;;9.18;1.40;;;;;;;;;;6303813;22;20003;-94
2022/12/06 11:56:45;;;;;;;6.03;1.10;;;;;;;;;;6304027;22;19998;-93
2022/12/06 11:59:10;;;;;;;5.53;0.95;;;;;;;;;;6303959;22;20006;-92
2022/12/06 12:01:41;;;;;;;11.70;3.13;;;;;;;;;;6303735;22;20784;-93
2022/12/06 12:04:23;;;;;;;7.63;1.20;;;;;;;;;;6303022;22;20035;-93
2022/12/06 12:06:56;;;;;;;6.47;1.27;;;;;;;;;;6333708;22;20007;-92
2022/12/06 12:09:26;;;;;;;12.93;1.80;;;;;;;;;;6305504;22;20011;-91
2022/12/06 12:12:04;;;;;;;9.63;1.60;;;;;;;;;;6303178;22;20005;-95
2022/12/06 12:14:37;;;;;;;6.85;1.70;;;;;;;;;;6303865;22;20007;-93
2022/12/06 12:17:03;;;;;;;7.32;1.60;;;;;;;;;;6331492;22;20002;-92
2022/12/06 12:19:42;;;;;;;10.35;1.50;;;;;;;;;;6303438;22;20017;-91
2022/12/06 12:22:20;;;;;;;10.77;2.78;;;;;;;;;;6303503;22;20011;-92
2022/12/06 12:24:48;;;;;;;8.13;1.85;;;;;;;;;;6331423;22;20014;-92
2022/12/06 12:27:31;;;;;;;15.18;4.80;;;;;;;;;;6303808;22;20443;-92
2022/12/06 12:30:15;;;;;;;11.05;3.15;;;;;;;;;;6329987;22;20030;-91
2022/12/06 12:32:41;;;;;;;8.60;1.48;;;;;;;;;;6331955;22;20130;-91
2022/12/06 12:35:19;;;;;;;9.98;1.77;;;;;;;;;;6304067;22;19995;-91
2022/12/06 12:37:44;;;;;;;7.47;1.63;;;;;;;;;;6304083;22;20030;-92
2022/12/06 12:40:27;;;;;;;8.70;1.80;;;;;;;;;;6299721;22;20424;-92
2022/12/06 12:42:56;;;;;;;7.78;1.80;;;;;;;;;;6328372;22;20014;-91
2022/12/06 12:45:22;;;;;;;7.85;1.60;;;;;;;;;;6301354;22;20028;-92
2022/12/06 12:47:56;;;;;;;11.02;1.67;;;;;;;;;;6302426;22;20019;-92
2022/12/06 12:50:22;;;;;;;7.90;1.13;;;;;;;;;;6300434;22;20018;-91
2022/12/06 12:52:48;;;;;;;9.25;1.38;;;;;;;;;;6301780;22;20003;-90
2022/12/06 12:55:15;;;;;;;9.65;2.45;;;;;;;;;;6301048;22;20159;-92
2022/12/06 12:57:42;;;;;;;11.05;2.00;;;;;;;;;;6303386;22;20017;-91
2022/12/06 13:00:27;;;;;;;13.32;2.22;;;;;;;;;;6305350;22;20002;-91
2022/12/06 13:03:08;;;;;;;9.77;1.83;;;;;;;;;;6300452;22;20023;-93
2022/12/06 13:05:35;;;;;;;10.73;1.52;;;;;;;;;;6301408;22;20006;-92
2022/12/06 13:08:05;;;;;;;8.32;1.65;;;;;;;;;;6302235;22;20384;-92
2022/12/06 13:10:32;;;;;;;10.32;1.73;;;;;;;;;;6301986;22;20067;-91
2022/12/06 13:12:59;;;;;;;7.75;1.73;;;;;;;;;;6302342;22;20003;-92
2022/12/06 13:15:30;;;;;;;10.10;1.50;;;;;;;;;;6327952;22;20070;-92
2022/12/06 13:18:12;;;;;;;10.05;1.50;;;;;;;;;;6330367;22;20001;-95
2022/12/06 13:20:39;;;;;;;6.97;1.73;;;;;;;;;;6301381;22;20002;-92
2022/12/06 13:23:11;;;;;;;7.78;1.65;;;;;;;;;;6302166;22;20011;-91
2022/12/06 13:25:36;;;;;;;9.33;1.87;;;;;;;;;;6326573;22;20084;-92
2022/12/06 13:28:05;;;;;;;7.55;1.42;;;;;;;;;;6306324;22;20011;-95
2022/12/06 13:30:34;;;;;;;7.47;1.52;;;;;;;;;;6346135;22;20092;-93
2022/12/06 13:32:59;;;;;;;10.90;1.70;;;;;;;;;;6300615;22;20450;-92
2022/12/06 13:35:25;;;;;;;9.35;1.52;;;;;;;;;;6301157;22;20002;-93
2022/12/06 13:37:51;;;;;;;7.83;1.70;;;;;;;;;;6328583;22;19991;-92
2022/12/06 13:40:32;;;;;;;9.85;1.58;;;;;;;;;;6303288;22;20239;-92
2022/12/06 13:43:00;;;;;;;12.80;2.05;;;;;;;;;;6331330;22;20003;-92
2022/12/06 13:45:38;;;;;;;11.45;1.70;;;;;;;;;;6300561;22;20030;-93
2022/12/06 13:48:24;;;;;;;11.18;1.58;;;;;;;;;;6329149;22;20493;-93
2022/12/06 13:50:51;;;;;;;9.20;1.67;;;;;;;;;;6299835;22;20015;-95
2022/12/06 13:53:17;;;;;;;10.02;1.63;;;;;;;;;;6302494;22;20093;-93
2022/12/06 14:04:50;;;;;;;9.63;1.65;;;;;;;;;;6298200;22;20262;-94
2022/12/06 14:07:29;;;;;;;12.63;1.83;;;;;;;;;;6302529;22;20047;-94
2022/12/06 14:09:55;;;;;;;11.38;1.67;;;;;;;;;;6301824;22;20011;-95
2022/12/06 14:12:20;;;;;;;7.32;1.23;;;;;;;;;;6303612;22;20015;-93
2022/12/06 14:15:03;;;;;;;10.77;1.58;;;;;;;;;;6279527;22;20084;-94
2022/12/06 14:17:38;;;;;;;11.30;1.77;;;;;;;;;;6251749;22;20004;-95
2022/12/06 14:20:19;;;;;;;8.40;1.60;;;;;;;;;;6303496;22;20228;-95
2022/12/06 14:22:47;;;;;;;8.57;1.70;;;;;;;;;;6277989;22;20035;-94
2022/12/06 14:25:15;;;;;;;7.78;1.90;;;;;;;;;;6253737;22;20103;-95
2022/12/06 14:27:42;;;;;;;13.23;2.60;;;;;;;;;;6252165;22;19996;-94
2022/12/06 14:30:17;;;;;;;11.23;2.10;;;;;;;;;;6275887;22;20015;-95
2022/12/06 14:32:51;;;;;;;11.23;2.72;;;;;;;;;;6278675;22;19995;-95
2022/12/06 14:35:21;;;;;;;11.10;2.72;;;;;;;;;;6281099;22;20030;-94
2022/12/06 14:37:56;;;;;;;11.35;2.97;;;;;;;;;;6276785;22;20122;-94
2022/12/06 14:40:26;;;;;;;14.43;4.35;;;;;;;;;;6249784;22;20061;-94
2022/12/06 14:43:02;;;;;;;15.95;5.93;;;;;;;;;;6248536;22;20090;-93
2022/12/06 14:45:34;;;;;;;11.80;3.15;;;;;;;;;;6276559;22;19999;-96
2022/12/06 14:48:01;;;;;;;11.63;3.50;;;;;;;;;;6249696;22;20014;-93
2022/12/06 14:50:29;;;;;;;14.48;3.38;;;;;;;;;;6275395;22;20098;-95
2022/12/06 14:52:58;;;;;;;11.18;1.70;;;;;;;;;;6248494;22;20011;-94
2022/12/06 14:55:24;;;;;;;9.65;1.98;;;;;;;;;;6275337;22;20445;-94
2022/12/06 14:57:53;;;;;;;11.60;1.65;;;;;;;;;;6274501;22;20065;-93
2022/12/06 15:00:22;;;;;;;12.80;1.77;;;;;;;;;;6247677;22;20015;-93
2022/12/06 15:02:58;;;;;;;10.05;2.28;;;;;;;;;;6276170;22;20448;-95
2022/12/06 15:05:38;;;;;;;11.00;1.88;;;;;;;;;;6243551;23;20110;-94
2022/12/06 15:08:22;;;;;;;14.55;2.05;;;;;;;;;;6218205;23;20011;-94
2022/12/06 15:10:55;;;;;;;14.00;2.30;;;;;;;;;;6244814;23;20000;-96
2022/12/06 15:13:21;;;;;;;10.53;2.00;;;;;;;;;;6243578;23;20008;-94
2022/12/06 15:15:48;;;;;;;9.48;2.60;;;;;;;;;;6244546;23;20217;-94
2022/12/06 15:26:46;;;;;;;11.20;2.30;;;;;;;;;;6279210;22;20172;-96
2022/12/06 15:32:00;;;;;;;10.18;1.83;;;;;;;;;;6275450;22;20031;-92
2022/12/06 15:36:58;;;;;;;10.60;1.97;;;;;;;;;;6307240;22;20489;-95
2022/12/06 15:39:25;;;;;;;12.27;1.77;;;;;;;;;;6306418;22;20204;-93
2022/12/06 15:41:53;;;;;;;9.80;1.52;;;;;;;;;;6280575;22;20003;-96
2022/12/06 15:44:21;;;;;;;9.25;1.70;;;;;;;;;;6278523;22;20425;-93
2022/12/06 15:46:46;;;;;;;10.13;1.73;;;;;;;;;;6307553;22;20018;-94
2022/12/06 15:49:19;;;;;;;14.00;2.20;;;;;;;;;;6278520;22;20051;-96
2022/12/06 15:51:44;;;;;;;7.10;1.63;;;;;;;;;;6280676;22;20010;-93